createdAt,value
2018-05-10T00:00:12.296Z,6.90
2018-05-10T00:02:41.270Z,6.50
2018-05-10T00:05:10.147Z,6.77
2018-05-10T00:07:39.163Z,6.63
2018-05-10T00:10:08.148Z,7.33
2018-05-10T00:12:37.157Z,6.40
2018-05-10T00:15:06.061Z,6.80
2018-05-10T00:17:35.134Z,7.03
2018-05-10T00:20:04.034Z,6.10
2018-05-10T00:22:32.948Z,7.23
2018-05-10T00:25:02.022Z,6.73
2018-05-10T00:27:30.950Z,7.27
2018-05-10T00:29:59.883Z,7.70
2018-05-10T00:32:28.828Z,7.07
2018-05-10T00:34:57.783Z,7.40
2018-05-10T00:37:26.687Z,8.00
2018-05-10T00:39:55.649Z,7.27
2018-05-10T00:42:24.639Z,7.77
2018-05-10T00:44:53.542Z,6.67
2018-05-10T00:47:22.523Z,8.27
2018-05-10T00:49:51.411Z,7.50
2018-05-10T00:52:20.299Z,7.83
2018-05-10T00:54:49.307Z,8.37
2018-05-10T00:57:18.300Z,7.33
2018-05-10T00:59:47.298Z,7.87
2018-05-10T01:02:16.261Z,7.90
2018-05-10T01:04:45.234Z,9.37
2018-05-10T01:07:14.066Z,9.03
2018-05-10T01:09:43.032Z,8.27
2018-05-10T01:12:12.036Z,8.63
2018-05-10T01:14:40.959Z,8.60
2018-05-10T01:17:09.882Z,8.07
2018-05-10T01:19:38.803Z,8.07
2018-05-10T01:22:07.711Z,8.00
2018-05-10T01:24:36.696Z,8.73
2018-05-10T01:27:05.590Z,8.03
2018-05-10T01:29:34.490Z,8.40
2018-05-10T01:32:03.433Z,7.50
2018-05-10T01:34:32.338Z,8.17
2018-05-10T01:37:01.247Z,8.83
2018-05-10T01:39:30.247Z,8.27
2018-05-10T01:41:59.157Z,7.60
2018-05-10T01:44:28.130Z,9.13
2018-05-10T01:46:57.150Z,8.33
2018-05-10T01:49:26.141Z,8.03
2018-05-10T01:51:55.113Z,9.03
2018-05-10T01:54:24.089Z,8.27
2018-05-10T01:56:53.011Z,8.10
2018-05-10T01:59:21.982Z,8.63
2018-05-10T02:01:50.947Z,8.83
2018-05-10T02:04:19.846Z,8.70
2018-05-10T02:06:48.862Z,8.93
2018-05-10T02:09:17.813Z,8.73
2018-05-10T02:11:46.719Z,9.57
2018-05-10T02:14:15.733Z,8.47
2018-05-10T02:16:44.724Z,8.90
2018-05-10T02:19:13.732Z,8.27
2018-05-10T02:21:42.706Z,8.40
2018-05-10T02:24:11.635Z,7.70
2018-05-10T02:26:40.605Z,9.17
2018-05-10T02:29:09.580Z,8.03
2018-05-10T02:31:38.536Z,8.27
2018-05-10T02:34:07.459Z,7.80
2018-05-10T02:36:36.473Z,7.70
2018-05-10T02:39:05.422Z,7.40
2018-05-10T02:41:34.449Z,6.97
2018-05-10T02:44:03.345Z,7.73
2018-05-10T02:46:32.302Z,7.73
2018-05-10T02:49:01.194Z,7.40
2018-05-10T02:51:30.212Z,8.07
2018-05-10T02:53:59.149Z,8.77
2018-05-10T02:56:28.085Z,8.47
2018-05-10T02:58:56.984Z,8.07
2018-05-10T03:01:25.963Z,8.60
2018-05-10T03:03:54.970Z,8.03
2018-05-10T03:06:23.961Z,8.33
2018-05-10T03:08:52.898Z,8.60
2018-05-10T03:11:21.827Z,9.10
2018-05-10T03:13:50.737Z,8.50
2018-05-10T03:16:19.714Z,8.13
2018-05-10T03:18:48.622Z,8.53
2018-05-10T03:21:17.525Z,8.30
2018-05-10T03:23:46.490Z,8.60
2018-05-10T03:26:15.388Z,8.90
2018-05-10T03:28:44.333Z,9.97
2018-05-10T03:31:13.384Z,8.33
2018-05-10T03:33:42.287Z,8.73
2018-05-10T03:36:11.253Z,9.40
2018-05-10T03:38:40.353Z,9.90
2018-05-10T03:41:09.336Z,9.37
2018-05-10T03:43:38.249Z,8.17
2018-05-10T03:46:07.225Z,8.63
2018-05-10T03:48:36.224Z,8.37
2018-05-10T03:51:05.210Z,9.30
2018-05-10T03:53:34.312Z,8.70
2018-05-10T03:56:03.278Z,11.10
2018-05-10T03:58:32.179Z,26.77
2018-05-10T04:01:01.147Z,27.17
2018-05-10T04:03:30.057Z,15.87
2018-05-10T04:05:59.083Z,11.57
2018-05-10T04:08:28.013Z,9.90
2018-05-10T04:10:56.942Z,9.33
2018-05-10T04:13:25.852Z,9.87
2018-05-10T04:15:54.928Z,9.93
2018-05-10T04:18:23.852Z,9.47
2018-05-10T04:20:52.803Z,10.53
2018-05-10T04:23:21.786Z,10.00
2018-05-10T04:25:50.689Z,10.30
2018-05-10T04:28:19.703Z,11.00
2018-05-10T04:30:48.679Z,10.07
2018-05-10T04:33:17.682Z,11.97
2018-05-10T04:35:46.645Z,12.07
2018-05-10T04:38:15.752Z,11.63
2018-05-10T04:40:44.642Z,11.43
2018-05-10T04:43:13.654Z,10.97
2018-05-10T04:45:42.707Z,11.83
2018-05-10T04:48:11.741Z,12.23
2018-05-10T04:50:40.663Z,11.77
2018-05-10T04:53:09.705Z,11.60
2018-05-10T04:55:38.625Z,11.90
2018-05-10T04:58:07.585Z,11.73
2018-05-10T05:00:36.606Z,11.57
2018-05-10T05:03:05.489Z,12.83
2018-05-10T05:05:34.415Z,13.40
2018-05-10T05:08:03.384Z,11.57
2018-05-10T05:10:32.356Z,12.67
2018-05-10T05:13:01.274Z,13.47
2018-05-10T05:15:30.254Z,13.27
2018-05-10T05:17:59.157Z,12.53
2018-05-10T05:20:28.109Z,12.50
2018-05-10T05:22:57.067Z,11.33
2018-05-10T05:25:26.000Z,12.40
2018-05-10T05:27:54.897Z,12.13
2018-05-10T05:30:23.862Z,13.17
2018-05-10T05:32:52.778Z,12.10
2018-05-10T05:35:21.763Z,11.53
2018-05-10T05:37:50.717Z,12.53
2018-05-10T05:40:19.642Z,11.03
2018-05-10T05:42:48.651Z,12.20
2018-05-10T05:45:17.607Z,11.97
2018-05-10T05:47:46.615Z,10.27
2018-05-10T05:50:15.493Z,12.23
2018-05-10T05:52:45.827Z,13.87
2018-05-10T05:55:14.871Z,13.40
2018-05-10T05:57:43.770Z,11.87
2018-05-10T06:00:12.748Z,12.73
2018-05-10T06:02:41.704Z,13.17
2018-05-10T06:05:10.651Z,11.60
2018-05-10T06:07:39.680Z,12.17
2018-05-10T06:10:08.676Z,11.83
2018-05-10T06:12:37.590Z,11.67
2018-05-10T06:15:06.582Z,13.07
2018-05-10T06:17:35.511Z,11.93
2018-05-10T06:20:04.411Z,11.23
2018-05-10T06:22:33.361Z,12.43
2018-05-10T06:25:02.430Z,11.53
2018-05-10T06:27:31.246Z,11.90
2018-05-10T06:30:00.333Z,12.90
2018-05-10T06:32:29.231Z,13.80
2018-05-10T06:34:58.156Z,12.23
2018-05-10T06:37:27.115Z,12.93
2018-05-10T06:39:56.095Z,13.07
2018-05-10T06:42:25.066Z,14.00
2018-05-10T06:44:54.066Z,13.30
2018-05-10T06:47:22.972Z,13.23
2018-05-10T06:49:51.956Z,12.80
2018-05-10T06:52:20.931Z,13.07
2018-05-10T06:54:49.876Z,13.67
2018-05-10T06:57:18.800Z,12.80
2018-05-10T06:59:47.791Z,13.67
2018-05-10T07:02:16.820Z,16.17
2018-05-10T07:04:45.756Z,12.83
2018-05-10T07:07:14.705Z,15.40
2018-05-10T07:09:43.936Z,14.77
2018-05-10T07:12:12.623Z,14.63
2018-05-10T07:14:41.591Z,13.20
2018-05-10T07:17:10.521Z,12.00
2018-05-10T07:19:39.435Z,13.67
2018-05-10T07:22:08.412Z,12.87
2018-05-10T07:24:37.327Z,14.73
2018-05-10T07:27:06.327Z,11.87
2018-05-10T07:29:35.430Z,12.97
2018-05-10T07:32:04.342Z,13.40
2018-05-10T07:34:33.256Z,13.27
2018-05-10T07:37:02.235Z,14.20
2018-05-10T07:39:31.152Z,13.67
2018-05-10T07:42:00.229Z,11.10
2018-05-10T07:44:29.280Z,10.20
2018-05-10T07:46:58.225Z,12.73
2018-05-10T07:49:27.148Z,13.27
2018-05-10T07:51:56.141Z,12.20
2018-05-10T07:54:25.339Z,14.83
2018-05-10T07:56:54.265Z,13.53
2018-05-10T07:59:23.442Z,12.03
2018-05-10T08:01:52.363Z,12.67
2018-05-10T08:04:21.285Z,13.50
2018-05-10T08:06:50.257Z,14.00
2018-05-10T08:09:19.169Z,12.63
2018-05-10T08:11:48.073Z,12.93
2018-05-10T08:14:17.027Z,13.13
2018-05-10T08:16:45.976Z,13.53
2018-05-10T08:19:14.971Z,14.00
2018-05-10T08:21:43.917Z,15.40
2018-05-10T08:24:12.837Z,15.10
2018-05-10T08:26:41.756Z,15.00
2018-05-10T08:29:10.712Z,16.23
2018-05-10T08:31:39.634Z,14.90
2018-05-10T08:34:08.550Z,15.80
2018-05-10T08:36:37.590Z,16.40
2018-05-10T08:39:06.469Z,13.23
2018-05-10T08:41:35.384Z,13.27
2018-05-10T08:44:04.530Z,14.80
2018-05-10T08:46:33.474Z,14.43
2018-05-10T08:49:02.379Z,14.00
2018-05-10T08:51:31.429Z,14.97
2018-05-10T08:54:00.343Z,12.33
2018-05-10T08:56:29.273Z,14.60
2018-05-10T08:58:58.243Z,12.47
2018-05-10T09:01:27.169Z,13.77
2018-05-10T09:03:56.139Z,13.47
2018-05-10T09:06:25.197Z,10.87
2018-05-10T09:08:54.137Z,12.87
2018-05-10T09:11:23.045Z,14.37
2018-05-10T09:13:51.999Z,13.00
2018-05-10T09:16:20.928Z,17.23
2018-05-10T09:18:49.876Z,19.00
2018-05-10T09:21:18.982Z,14.80
2018-05-10T09:23:47.894Z,17.43
2018-05-10T09:26:16.809Z,18.27
2018-05-10T09:28:45.779Z,18.30
2018-05-10T09:31:14.700Z,15.40
2018-05-10T09:33:43.621Z,16.07
2018-05-10T09:36:12.588Z,17.63
2018-05-10T09:38:41.504Z,14.97
2018-05-10T09:41:10.415Z,15.97
2018-05-10T09:43:39.397Z,16.37
2018-05-10T09:46:08.386Z,16.77
2018-05-10T09:48:37.295Z,15.23
2018-05-10T09:51:06.255Z,15.27
2018-05-10T09:53:35.236Z,14.37
2018-05-10T09:56:04.117Z,15.00
2018-05-10T09:58:33.097Z,15.47
2018-05-10T10:01:01.994Z,14.33
2018-05-10T10:03:30.937Z,17.17
2018-05-10T10:05:59.977Z,14.57
2018-05-10T10:08:28.997Z,13.43
2018-05-10T10:10:57.916Z,13.60
2018-05-10T10:13:26.871Z,15.43
2018-05-10T10:15:55.818Z,13.70
2018-05-10T10:18:24.845Z,12.00
2018-05-10T10:20:53.820Z,11.37
2018-05-10T10:23:22.720Z,11.40
2018-05-10T10:25:51.741Z,9.37
2018-05-10T10:28:20.798Z,10.73
2018-05-10T10:30:49.733Z,11.53
2018-05-10T10:33:18.690Z,10.60
2018-05-10T10:35:47.644Z,8.93
2018-05-10T10:38:16.618Z,8.93
2018-05-10T10:40:45.517Z,9.47
2018-05-10T10:43:14.477Z,9.50
2018-05-10T10:45:43.402Z,8.73
2018-05-10T10:48:12.360Z,7.93
2018-05-10T10:50:41.327Z,7.40
2018-05-10T10:53:10.215Z,7.50
2018-05-10T10:55:39.117Z,7.03
2018-05-10T10:58:08.120Z,8.67
2018-05-10T11:00:37.032Z,7.10
2018-05-10T11:03:05.911Z,6.83
2018-05-10T11:05:34.942Z,7.03
2018-05-10T11:08:03.870Z,6.23
2018-05-10T11:10:32.775Z,5.47
2018-05-10T11:13:01.736Z,7.37
2018-05-10T11:15:30.760Z,6.30
2018-05-10T11:17:59.655Z,6.37
2018-05-10T11:20:28.632Z,6.17
2018-05-10T11:22:57.547Z,6.80
2018-05-10T11:25:26.479Z,6.37
2018-05-10T11:27:55.437Z,5.90
2018-05-10T11:30:24.362Z,6.30
2018-05-10T11:32:53.263Z,7.03
2018-05-10T11:35:22.190Z,6.13
2018-05-10T11:37:51.201Z,5.40
2018-05-10T11:40:20.113Z,6.07
2018-05-10T11:42:49.059Z,6.60
2018-05-10T11:45:18.060Z,6.33
2018-05-10T11:47:46.959Z,5.77
2018-05-10T11:50:15.922Z,4.90
2018-05-10T11:52:44.853Z,6.27
2018-05-10T11:55:13.822Z,5.30
2018-05-10T11:57:42.787Z,5.87
2018-05-10T12:00:11.705Z,4.80
2018-05-10T12:02:40.697Z,4.40
2018-05-10T12:05:09.565Z,4.57
2018-05-10T12:07:38.577Z,4.73
2018-05-10T12:10:07.486Z,5.27
2018-05-10T12:12:36.450Z,4.33
2018-05-10T12:15:05.336Z,4.27
2018-05-10T12:17:34.245Z,5.23
2018-05-10T12:20:03.198Z,4.80
2018-05-10T12:22:32.297Z,5.20
2018-05-10T12:25:01.156Z,4.80
2018-05-10T12:27:30.212Z,4.40
2018-05-10T12:29:59.204Z,4.27
2018-05-10T12:32:28.118Z,5.27
2018-05-10T12:34:57.200Z,5.17
2018-05-10T12:37:26.180Z,4.80
2018-05-10T12:39:55.056Z,4.93
2018-05-10T12:42:24.066Z,4.67
2018-05-10T12:44:52.983Z,4.20
2018-05-10T12:47:21.890Z,4.53
2018-05-10T12:49:50.825Z,4.27
2018-05-10T12:52:19.730Z,4.57
2018-05-10T12:54:48.720Z,4.70
2018-05-10T12:57:17.689Z,4.70
2018-05-10T12:59:46.586Z,4.10
2018-05-10T13:02:15.524Z,4.80
2018-05-10T13:04:44.493Z,4.33
2018-05-10T13:07:13.388Z,4.43
2018-05-10T13:09:42.428Z,4.80
2018-05-10T13:12:11.384Z,4.93
2018-05-10T13:14:40.324Z,4.53
2018-05-10T13:17:09.244Z,5.10
2018-05-10T13:19:38.345Z,4.97
2018-05-10T13:22:07.252Z,4.20
2018-05-10T13:24:36.178Z,5.33
2018-05-10T13:27:05.162Z,5.33
2018-05-10T13:29:34.164Z,5.87
2018-05-10T13:32:03.133Z,5.13
2018-05-10T13:34:32.105Z,8.67
2018-05-10T13:37:01.082Z,6.50
2018-05-10T13:39:30.024Z,5.47
2018-05-10T13:41:59.008Z,5.17
2018-05-10T13:44:27.924Z,5.67
2018-05-10T13:46:56.891Z,5.00
2018-05-10T13:49:25.968Z,5.40
2018-05-10T13:51:54.910Z,5.57
2018-05-10T13:54:23.806Z,5.63
2018-05-10T13:56:52.846Z,5.90
2018-05-10T13:59:21.740Z,5.23
2018-05-10T14:01:50.808Z,6.10
2018-05-10T14:04:19.766Z,5.00
2018-05-10T14:06:48.684Z,5.87
2018-05-10T14:09:17.570Z,4.63
2018-05-10T14:11:46.557Z,4.97
2018-05-10T14:14:15.458Z,4.83
2018-05-10T14:16:44.447Z,5.37
2018-05-10T14:19:13.464Z,5.97
2018-05-10T14:21:42.334Z,4.70
2018-05-10T14:24:11.326Z,5.20
2018-05-10T14:26:40.300Z,5.47
2018-05-10T14:29:09.205Z,4.90
2018-05-10T14:31:38.097Z,5.33
2018-05-10T14:34:07.089Z,4.73
2018-05-10T14:36:35.963Z,5.60
2018-05-10T14:39:04.857Z,5.33
2018-05-10T14:41:33.806Z,5.10
2018-05-10T14:44:02.752Z,6.13
2018-05-10T14:46:31.638Z,6.50
2018-05-10T14:49:00.642Z,5.23
2018-05-10T14:51:29.549Z,5.13
2018-05-10T14:53:58.463Z,5.20
2018-05-10T14:56:27.511Z,5.47
2018-05-10T14:58:56.457Z,6.33
2018-05-10T15:01:25.354Z,6.43
2018-05-10T15:03:54.397Z,6.00
2018-05-10T15:06:23.301Z,6.40
2018-05-10T15:08:52.203Z,4.90
2018-05-10T15:11:21.161Z,5.47
2018-05-10T15:13:50.055Z,6.27
2018-05-10T15:16:19.054Z,6.57
2018-05-10T15:18:48.151Z,6.97
2018-05-10T15:21:17.150Z,6.33
2018-05-10T15:23:46.102Z,6.43
2018-05-10T15:26:15.061Z,6.27
2018-05-10T15:28:44.000Z,7.73
2018-05-10T15:31:12.922Z,7.17
2018-05-10T15:33:41.903Z,6.97
2018-05-10T15:36:10.806Z,7.20
2018-05-10T15:38:39.790Z,6.67
2018-05-10T15:41:08.890Z,7.20
2018-05-10T15:43:37.802Z,7.43
2018-05-10T15:46:06.745Z,6.20
2018-05-10T15:48:35.845Z,6.57
2018-05-10T15:51:04.757Z,7.40
2018-05-10T15:53:33.685Z,7.10
2018-05-10T15:56:02.729Z,6.77
2018-05-10T15:58:31.730Z,6.47
2018-05-10T16:01:00.699Z,6.47
2018-05-10T16:03:29.677Z,7.13
2018-05-10T16:05:58.579Z,7.60
2018-05-10T16:08:27.507Z,7.10
2018-05-10T16:10:56.583Z,6.20
2018-05-10T16:13:25.483Z,6.63
2018-05-10T16:15:54.456Z,6.80
2018-05-10T16:18:23.407Z,8.17
2018-05-10T16:20:52.313Z,8.97
2018-05-10T16:23:21.214Z,7.57
2018-05-10T16:25:50.344Z,7.53
2018-05-10T16:28:19.440Z,7.87
2018-05-10T16:30:48.376Z,8.33
2018-05-10T16:33:17.404Z,9.10
2018-05-10T16:35:46.355Z,9.97
2018-05-10T16:38:15.266Z,8.90
2018-05-10T16:40:44.273Z,8.33
2018-05-10T16:43:13.306Z,8.33
2018-05-10T16:45:42.211Z,7.93
2018-05-10T16:48:11.178Z,7.97
2018-05-10T16:50:40.168Z,7.80
2018-05-10T16:53:09.083Z,7.93
2018-05-10T16:55:38.038Z,9.47
2018-05-10T16:58:06.973Z,7.83
2018-05-10T17:00:35.874Z,8.43
2018-05-10T17:03:04.895Z,7.80
2018-05-10T17:05:33.914Z,10.03
2018-05-10T17:08:02.828Z,11.93
2018-05-10T17:10:31.799Z,11.37
2018-05-10T17:13:00.756Z,11.40
2018-05-10T17:15:29.683Z,10.60
2018-05-10T17:17:58.707Z,10.27
2018-05-10T17:20:27.641Z,11.07
2018-05-10T17:22:56.552Z,9.93
2018-05-10T17:25:25.533Z,10.13
2018-05-10T17:27:54.493Z,10.23
2018-05-10T17:30:23.530Z,9.17
2018-05-10T17:32:52.495Z,10.20
2018-05-10T17:35:21.400Z,10.73
2018-05-10T17:37:50.403Z,11.00
2018-05-10T17:40:19.496Z,11.80
2018-05-10T17:42:48.423Z,12.00
2018-05-10T17:45:17.357Z,11.90
2018-05-10T17:47:46.358Z,10.97
2018-05-10T17:50:15.278Z,9.87
2018-05-10T17:52:44.197Z,10.60
2018-05-10T17:55:13.231Z,11.83
2018-05-10T17:57:42.098Z,11.27
2018-05-10T18:00:11.019Z,11.40
2018-05-10T18:02:40.001Z,12.50
2018-05-10T18:05:08.951Z,11.87
2018-05-10T18:07:37.883Z,12.77
2018-05-10T18:10:06.857Z,12.70
2018-05-10T18:12:35.791Z,12.63
2018-05-10T18:15:04.712Z,14.40
2018-05-10T18:17:33.776Z,15.20
2018-05-10T18:20:02.962Z,15.13
2018-05-10T18:22:31.966Z,15.57
2018-05-10T18:25:00.986Z,16.40
2018-05-10T18:27:30.059Z,18.37
2018-05-10T18:29:59.019Z,18.80
2018-05-10T18:32:27.986Z,24.43
2018-05-10T18:34:56.903Z,22.43
2018-05-10T18:37:25.822Z,23.77
2018-05-10T18:39:54.794Z,32.83
2018-05-10T18:42:23.740Z,35.20
2018-05-10T18:44:52.668Z,34.27
2018-05-10T18:47:21.778Z,23.07
2018-05-10T18:49:50.717Z,17.93
2018-05-10T18:52:19.766Z,16.17
2018-05-10T18:54:48.762Z,15.83
2018-05-10T18:57:17.753Z,14.00
2018-05-10T18:59:46.658Z,13.27
2018-05-10T19:02:15.625Z,12.57
2018-05-10T19:04:44.538Z,12.00
2018-05-10T19:07:13.502Z,11.40
2018-05-10T19:09:42.614Z,11.10
2018-05-10T19:12:11.549Z,10.77
2018-05-10T19:14:40.499Z,10.13
2018-05-10T19:17:09.516Z,9.73
2018-05-10T19:19:38.458Z,9.13
2018-05-10T19:22:07.385Z,9.73
2018-05-10T19:24:36.411Z,10.10
2018-05-10T19:27:05.371Z,10.17
2018-05-10T19:29:34.325Z,9.90
2018-05-10T19:32:03.289Z,9.80
2018-05-10T19:34:32.191Z,10.47
2018-05-10T19:37:01.078Z,9.93
2018-05-10T19:39:30.054Z,10.43
2018-05-10T19:41:58.969Z,10.23
2018-05-10T19:44:27.990Z,11.33
2018-05-10T19:46:57.090Z,11.30
2018-05-10T19:49:26.100Z,10.60
2018-05-10T19:51:55.050Z,10.10
2018-05-10T19:54:24.029Z,10.50
2018-05-10T19:56:53.074Z,10.50
2018-05-10T19:59:22.004Z,11.37
2018-05-10T20:01:51.207Z,13.73
2018-05-10T20:04:20.119Z,13.97
2018-05-10T20:06:49.017Z,13.20
2018-05-10T20:09:17.972Z,14.53
2018-05-10T20:11:46.895Z,12.87
2018-05-10T20:14:15.808Z,10.70
2018-05-10T20:16:44.893Z,10.80
2018-05-10T20:19:14.815Z,9.23
2018-05-10T20:21:43.801Z,7.83
2018-05-10T20:24:12.823Z,7.77
2018-05-10T20:26:41.745Z,7.47
2018-05-10T20:29:10.658Z,8.63
2018-05-10T20:31:39.628Z,7.87
2018-05-10T20:34:08.540Z,8.57
2018-05-10T20:36:37.562Z,8.10
2018-05-10T20:39:06.528Z,8.27
2018-05-10T20:41:35.523Z,9.53
2018-05-10T20:44:04.364Z,8.43
2018-05-10T20:46:33.333Z,9.47
2018-05-10T20:49:02.260Z,9.83
2018-05-10T20:51:31.291Z,9.13
2018-05-10T20:54:00.268Z,8.33
2018-05-10T20:56:29.189Z,8.87
2018-05-10T20:58:58.151Z,9.43
2018-05-10T21:01:27.075Z,9.40
2018-05-10T21:03:56.054Z,10.07
2018-05-10T21:06:24.967Z,9.43
2018-05-10T21:08:53.926Z,10.23
2018-05-10T21:11:22.937Z,7.97
2018-05-10T21:13:51.916Z,6.80
2018-05-10T21:16:20.913Z,7.60
2018-05-10T21:18:49.827Z,7.30
2018-05-10T21:21:18.737Z,6.57
2018-05-10T21:23:47.691Z,7.57
2018-05-10T21:26:16.690Z,7.47
2018-05-10T21:28:45.617Z,7.20
2018-05-10T21:31:14.670Z,8.03
2018-05-10T21:33:43.666Z,9.50
2018-05-10T21:36:12.587Z,7.77
2018-05-10T21:38:41.540Z,7.87
2018-05-10T21:41:10.420Z,7.23
2018-05-10T21:43:39.339Z,6.90
2018-05-10T21:46:08.299Z,6.77
2018-05-10T21:48:37.191Z,6.90
2018-05-10T21:51:06.089Z,7.90
2018-05-10T21:53:35.043Z,7.77
2018-05-10T21:56:04.074Z,6.73
2018-05-10T21:58:33.104Z,7.00
2018-05-10T22:01:02.076Z,7.40
2018-05-10T22:03:31.062Z,7.50
2018-05-10T22:06:00.069Z,7.20
2018-05-10T22:08:28.993Z,7.27
2018-05-10T22:10:57.904Z,6.87
2018-05-10T22:13:26.798Z,6.93
2018-05-10T22:15:55.813Z,7.20
2018-05-10T22:18:24.708Z,7.13
2018-05-10T22:20:53.619Z,7.13
2018-05-10T22:23:23.091Z,7.70
2018-05-10T22:25:51.992Z,8.00
2018-05-10T22:28:20.974Z,7.33
2018-05-10T22:30:49.958Z,8.23
2018-05-10T22:33:18.967Z,8.17
2018-05-10T22:35:47.869Z,7.63
2018-05-10T22:38:16.799Z,6.93
2018-05-10T22:40:45.723Z,6.67
2018-05-10T22:43:14.623Z,5.90
2018-05-10T22:45:43.621Z,6.00
2018-05-10T22:48:12.511Z,5.27
2018-05-10T22:50:41.503Z,5.33
2018-05-10T22:53:10.489Z,4.83
2018-05-10T22:55:39.382Z,5.77
2018-05-10T22:58:08.269Z,5.13
2018-05-10T23:00:37.224Z,5.97
2018-05-10T23:03:06.128Z,5.73
2018-05-10T23:05:35.035Z,5.90
2018-05-10T23:08:03.962Z,6.43
2018-05-10T23:10:32.870Z,5.73
2018-05-10T23:13:01.787Z,6.27
2018-05-10T23:15:30.722Z,6.63
2018-05-10T23:17:59.630Z,5.63
2018-05-10T23:20:28.595Z,5.70
2018-05-10T23:22:57.549Z,6.50
2018-05-10T23:25:26.464Z,6.70
2018-05-10T23:27:55.389Z,7.53
2018-05-10T23:30:24.426Z,6.73
2018-05-10T23:32:53.323Z,6.57
2018-05-10T23:35:22.351Z,6.53
2018-05-10T23:37:51.437Z,6.83
2018-05-10T23:40:20.425Z,7.67
2018-05-10T23:42:49.309Z,8.17
2018-05-10T23:45:18.253Z,6.80
2018-05-10T23:47:47.139Z,6.83
2018-05-10T23:50:16.079Z,6.97
2018-05-10T23:52:45.013Z,6.50
2018-05-10T23:55:13.899Z,6.40
2018-05-10T23:57:42.821Z,6.43
